Clam Gulch, AK

2:33 PM AKDT on July 05, 2015 (GMT -0800)
mile 16.05 Oilwell Rd. | | Change Station
CLOSE
Current Station
Personal Weather Station
Location: Ninilchik, AK
Elevation: 1161 ft
Nearby Weather Stations

Elev 1161 ft 60.02 °N, 151.33 °W | Updated 5 minutes ago

Overcast
Overcast
63.5 °F
Feels Like 63.5 °F
N
7.4
Wind Variable Wind from NNW

Today
High -- | Low -- °F
--% Chance of Precip.
Yesterday
High -- | Low -- °F
Precip. -- in
4:50 AM 11:28 PM
Waning Gibbous, 81% visible
Pressure 30.16 in
Visibility 10.0 miles
Clouds Overcast 10000 ft
Dew Point 55 °F
Humidity 73%
Rainfall 0.00 in
Snow Depth Not available.
UV 2 out of 12
Pollen Not available.
Air Quality Not available.
Flu Activity Not available.
METAR PASX 052216Z AUTO 01004KT 10SM OVC100 21/11 A3016 RMK AO1

More Conditions Fewer Conditions

Pressure 30.16 in
Visibility 10.0 miles
Clouds Overcast 10000 ft
Dew Point 55 °F
Humidity 73%
Rainfall 0.00 in
Snow Depth Not available.
UV 2 out of 12
Pollen Not available.
Air Quality Not available.
Flu Activity Not available.
METAR PASX 052216Z AUTO 01004KT 10SM OVC100 21/11 A3016 RMK AO1

More Conditions Fewer Conditions

10-Day Weather Forecast

×

Almanac

Astronomy

Jul. 05, 2015 Rise Set
Actual Time
Civil Twilight
Nautical Twilight
Astronomical Twilight
Moon
Length of Visible Light
Length of Day
Tomorrow will be .
, % of the Moon is Illuminated

Today's Extremes

State Highs State Lows

Community

WunderPhotos

Upload Photos

1,835,414 photos uploaded!

WunderBlogs® & News

Nearby

Air Quality

  Air Quality AQ Index Pollutant
Not available.

Snow Depth

Station Depth Elevation

Earthquake Activity

City Distance Mag. Time & Date
Minimum magnitude displayed is 2.5.

Coastal Water Temperatures

Place Temperature

Stations

Nearby Weather Stations

Station Location Temp. Windchill Dew Point Humidity Wind Precip. Elev Updated Type